Aviation Digital Data Service (ADDS)

Output produced by METARs form (0205 UTC 22 April 2019)
found at http://www.aviationweather.gov/metar/data/
 
METAR text: VLSK 220100Z 12002KT 5000 BR SCT020 SCT100 31/22 Q1008 NOSIG
Conditions at: VLSK (SAVANNAKHET(CV/M, LA) observed 0100 UTC 22 April 2019
Temperature: 31.0°C (88°F)
Dewpoint: 22.0°C (72°F) [RH = 59%]
Pressure (altimeter): 29.76 inches Hg (1008.0 mb)
Winds: from the ESE (120 degrees) at 2 MPH (2 knots; 1.0 m/s)
Visibility: 3 miles ( 5 km)
Ceiling: at least 12,000 feet AGL
Clouds: scattered clouds at 2000 feet AGL
scattered clouds at 10000 feet AGL
Weather: BR  (mist)

METAR text: VLSK 211300Z 09002KT 6000 FEW020 35/22 Q1005 NOSIG
Conditions at: VLSK (SAVANNAKHET(CV/M, LA) observed 1300 UTC 21 April 2019
Temperature: 35.0°C (95°F)
Dewpoint: 22.0°C (72°F) [RH = 47%]
Pressure (altimeter): 29.68 inches Hg (1005.0 mb)
Winds: from the E (90 degrees) at 2 MPH (2 knots; 1.0 m/s)
Visibility: 4 miles ( 6 km)
Ceiling: at least 12,000 feet AGL
Clouds: few clouds at 2000 feet AGL
Weather: no significant weather observed at this time

METAR text: VLSK 211100Z 16002KT 7000 SCT020 SCT100 38/16 Q1003 NOSIG
Conditions at: VLSK (SAVANNAKHET(CV/M, LA) observed 1100 UTC 21 April 2019
Temperature: 38.0°C (100°F)
Dewpoint: 16.0°C (61°F) [RH = 27%]
Pressure (altimeter): 29.62 inches Hg (1003.0 mb)
Winds: from the SSE (160 degrees) at 2 MPH (2 knots; 1.0 m/s)
Visibility: 4 miles ( 7 km)
Ceiling: at least 12,000 feet AGL
Clouds: scattered clouds at 2000 feet AGL
scattered clouds at 10000 feet AGL
Weather: no significant weather observed at this time

METAR text: VLSK 211000Z 16002KT 7000 SCT020 SCT100 39/16 Q1004 NOSIG
Conditions at: VLSK (SAVANNAKHET(CV/M, LA) observed 1000 UTC 21 April 2019
Temperature: 39.0°C (102°F)
Dewpoint: 16.0°C (61°F) [RH = 26%]
Pressure (altimeter): 29.65 inches Hg (1004.0 mb)
Winds: from the SSE (160 degrees) at 2 MPH (2 knots; 1.0 m/s)
Visibility: 4 miles ( 7 km)
Ceiling: at least 12,000 feet AGL
Clouds: scattered clouds at 2000 feet AGL
scattered clouds at 10000 feet AGL
Weather: no significant weather observed at this time

METAR text: VLSK 210900Z 16004KT 8000 SCT020 SCT100 40/17 Q1004 NOSIG
Conditions at: VLSK (SAVANNAKHET(CV/M, LA) observed 0900 UTC 21 April 2019
Temperature: 40.0°C (104°F)
Dewpoint: 17.0°C (63°F) [RH = 26%]
Pressure (altimeter): 29.65 inches Hg (1004.0 mb)
Winds: from the SSE (160 degrees) at 5 MPH (4 knots; 2.1 m/s)
Visibility: 5 miles ( 8 km)
Ceiling: at least 12,000 feet AGL
Clouds: scattered clouds at 2000 feet AGL
scattered clouds at 10000 feet AGL
Weather: no significant weather observed at this time

METAR text: VLSK 210800Z 18002KT 8000 SCT020 SCT100 39/19 Q1006 NOSIG
Conditions at: VLSK (SAVANNAKHET(CV/M, LA) observed 0800 UTC 21 April 2019
Temperature: 39.0°C (102°F)
Dewpoint: 19.0°C (66°F) [RH = 31%]
Pressure (altimeter): 29.70 inches Hg (1006.0 mb)
Winds: from the S (180 degrees) at 2 MPH (2 knots; 1.0 m/s)
Visibility: 5 miles ( 8 km)
Ceiling: at least 12,000 feet AGL
Clouds: scattered clouds at 2000 feet AGL
scattered clouds at 10000 feet AGL
Weather: no significant weather observed at this time

METAR text: VLSK 210700Z 18004KT 7000 SCT020 SCT100 38/20 Q1007 NOSIG
Conditions at: VLSK (SAVANNAKHET(CV/M, LA) observed 0700 UTC 21 April 2019
Temperature: 38.0°C (100°F)
Dewpoint: 20.0°C (68°F) [RH = 35%]
Pressure (altimeter): 29.73 inches Hg (1007.0 mb)
Winds: from the S (180 degrees) at 5 MPH (4 knots; 2.1 m/s)
Visibility: 4 miles ( 7 km)
Ceiling: at least 12,000 feet AGL
Clouds: scattered clouds at 2000 feet AGL
scattered clouds at 10000 feet AGL
Weather: no significant weather observed at this time

METAR text: VLSK 210600Z 18004KT 7000 SCT020 SCT100 38/21 Q1007 NOSIG
Conditions at: VLSK (SAVANNAKHET(CV/M, LA) observed 0600 UTC 21 April 2019
Temperature: 38.0°C (100°F)
Dewpoint: 21.0°C (70°F) [RH = 38%]
Pressure (altimeter): 29.73 inches Hg (1007.0 mb)
Winds: from the S (180 degrees) at 5 MPH (4 knots; 2.1 m/s)
Visibility: 4 miles ( 7 km)
Ceiling: at least 12,000 feet AGL
Clouds: scattered clouds at 2000 feet AGL
scattered clouds at 10000 feet AGL
Weather: no significant weather observed at this time

METAR text: VLSK 210500Z 18004KT 7000 SCT020 SCT100 37/22 Q1007 NOSIG
Conditions at: VLSK (SAVANNAKHET(CV/M, LA) observed 0500 UTC 21 April 2019
Temperature: 37.0°C (99°F)
Dewpoint: 22.0°C (72°F) [RH = 42%]
Pressure (altimeter): 29.73 inches Hg (1007.0 mb)
Winds: from the S (180 degrees) at 5 MPH (4 knots; 2.1 m/s)
Visibility: 4 miles ( 7 km)
Ceiling: at least 12,000 feet AGL
Clouds: scattered clouds at 2000 feet AGL
scattered clouds at 10000 feet AGL
Weather: no significant weather observed at this time

METAR text: VLSK 210400Z 18004KT 7000 SCT020 FEW100 36/23 Q1007 NOSIG
Conditions at: VLSK (SAVANNAKHET(CV/M, LA) observed 0400 UTC 21 April 2019
Temperature: 36.0°C (97°F)
Dewpoint: 23.0°C (73°F) [RH = 47%]
Pressure (altimeter): 29.73 inches Hg (1007.0 mb)
Winds: from the S (180 degrees) at 5 MPH (4 knots; 2.1 m/s)
Visibility: 4 miles ( 7 km)
Ceiling: at least 12,000 feet AGL
Clouds: scattered clouds at 2000 feet AGL
few clouds at 10000 feet AGL
Weather: no significant weather observed at this time

METAR text: VLSK 210300Z 18004KT 7000 SCT020 FEW100 35/24 Q1008 NOSIG
Conditions at: VLSK (SAVANNAKHET(CV/M, LA) observed 0300 UTC 21 April 2019
Temperature: 35.0°C (95°F)
Dewpoint: 24.0°C (75°F) [RH = 53%]
Pressure (altimeter): 29.76 inches Hg (1008.0 mb)
Winds: from the S (180 degrees) at 5 MPH (4 knots; 2.1 m/s)
Visibility: 4 miles ( 7 km)
Ceiling: at least 12,000 feet AGL
Clouds: scattered clouds at 2000 feet AGL
few clouds at 10000 feet AGL
Weather: no significant weather observed at this time

METAR text: VLSK 210200Z 18004KT 7000 SCT020 FEW100 34/24 Q1008 NOSIG
Conditions at: VLSK (SAVANNAKHET(CV/M, LA) observed 0200 UTC 21 April 2019
Temperature: 34.0°C (93°F)
Dewpoint: 24.0°C (75°F) [RH = 56%]
Pressure (altimeter): 29.76 inches Hg (1008.0 mb)
Winds: from the S (180 degrees) at 5 MPH (4 knots; 2.1 m/s)
Visibility: 4 miles ( 7 km)
Ceiling: at least 12,000 feet AGL
Clouds: scattered clouds at 2000 feet AGL
few clouds at 10000 feet AGL
Weather: no significant weather observed at this time

METAR text: VLSK 210100Z 24002KT 5000 BR SCT020 FEW100 32/23 Q1008 NOSIG
Conditions at: VLSK (SAVANNAKHET(CV/M, LA) observed 0100 UTC 21 April 2019
Temperature: 32.0°C (90°F)
Dewpoint: 23.0°C (73°F) [RH = 59%]
Pressure (altimeter): 29.76 inches Hg (1008.0 mb)
Winds: from the WSW (240 degrees) at 2 MPH (2 knots; 1.0 m/s)
Visibility: 3 miles ( 5 km)
Ceiling: at least 12,000 feet AGL
Clouds: scattered clouds at 2000 feet AGL
few clouds at 10000 feet AGL
Weather: BR  (mist)

METAR text: VLSK 210000Z 09002KT 3000 BR SCT020 FEW100 30/23 Q1006 NOSIG
Conditions at: VLSK (SAVANNAKHET(CV/M, LA) observed 0000 UTC 21 April 2019
Temperature: 30.0°C (86°F)
Dewpoint: 23.0°C (73°F) [RH = 66%]
Pressure (altimeter): 29.70 inches Hg (1006.0 mb)
Winds: from the E (90 degrees) at 2 MPH (2 knots; 1.0 m/s)
Visibility: 1.86 miles (2.99 km)
Ceiling: at least 12,000 feet AGL
Clouds: scattered clouds at 2000 feet AGL
few clouds at 10000 feet AGL
Weather: BR  (mist)

Forecast for: VLSK (SAVANNAKHET(CV/M, LA)
Text: TAF VLSK 211700Z 2118/2218 22004KT 7000 SCT020 SCT100
Forecast period: 1800 UTC 21 April 2019 to 1800 UTC 22 April 2019
Forecast type: FROM: standard forecast or significant change
Winds: from the SW (220 degrees) at 5 MPH (4 knots; 2.1 m/s)
Visibility: 4 miles (7 km)
Ceiling: at least 12,000 feet AGL
Clouds: scattered clouds at 2000 feet AGL
scattered clouds at 10000 feet AGL
Weather: no significant weather forecast for this period